createdAt,value
2019-01-03T00:00:03.587Z,89.2
2019-01-03T00:01:02.168Z,89.01
2019-01-03T00:02:00.720Z,88.92
2019-01-03T00:02:59.416Z,89.2
2019-01-03T00:24:36.015Z,88.63
2019-01-03T00:25:34.594Z,87.97
2019-01-03T00:26:33.421Z,87.59
2019-01-03T00:27:31.960Z,87.87
2019-01-03T00:28:35.721Z,87.87
2019-01-03T00:29:29.265Z,88.73
2019-01-03T00:30:27.952Z,88.54
2019-01-03T00:31:26.494Z,88.73
2019-01-03T00:32:25.337Z,88.82
2019-01-03T00:33:24.002Z,88.54
2019-01-03T00:34:22.549Z,89.39
2019-01-03T00:35:21.241Z,88.35
2019-01-03T00:36:19.903Z,88.92
2019-01-03T00:37:18.458Z,88.82
2019-01-03T00:38:17.006Z,89.01
2019-01-03T00:39:15.545Z,88.73
2019-01-03T00:40:14.089Z,88.73
2019-01-03T00:41:12.639Z,88.82
2019-01-03T00:42:11.526Z,89.29
2019-01-03T00:43:10.065Z,89.39
2019-01-03T00:44:08.593Z,88.54
2019-01-03T00:46:52.112Z,88.63
2019-01-03T00:47:50.620Z,89.39
2019-01-03T00:48:50.176Z,89.58
2019-01-03T00:49:48.020Z,89.58
2019-01-03T00:50:46.530Z,89.48
2019-01-03T00:51:45.328Z,89.58
2019-01-03T00:52:44.017Z,89.11
2019-01-03T00:53:42.581Z,89.29
2019-01-03T00:54:41.103Z,89.58
2019-01-03T00:55:39.657Z,89.58
2019-01-03T00:56:38.419Z,89.48
2019-01-03T00:57:37.095Z,89.39
2019-01-03T00:58:35.783Z,89.2
2019-01-03T00:59:34.288Z,89.2
2019-01-03T01:00:32.904Z,89.48
2019-01-03T01:01:31.728Z,89.01
2019-01-03T01:02:30.541Z,89.39
2019-01-03T01:03:29.192Z,89.48
2019-01-03T01:04:27.960Z,89.01
2019-01-03T01:05:26.518Z,89.29
2019-01-03T01:06:25.052Z,89.58
2019-01-03T01:07:23.900Z,90.15
2019-01-03T01:08:22.517Z,89.58
2019-01-03T01:09:21.264Z,89.39
2019-01-03T01:10:19.954Z,88.63
2019-01-03T01:11:18.512Z,89.2
2019-01-03T01:12:17.160Z,89.39
2019-01-03T01:13:15.761Z,89.77
2019-01-03T01:14:14.316Z,89.39
2019-01-03T01:15:12.889Z,89.48
2019-01-03T01:16:11.443Z,89.15
2019-01-03T01:17:09.979Z,89.53
2019-01-03T01:18:08.588Z,90.05
2019-01-03T01:19:07.449Z,90.24
2019-01-03T01:20:06.084Z,90.34
2019-01-03T01:21:04.659Z,90.24
2019-01-03T01:22:03.300Z,89.63
2019-01-03T01:23:01.983Z,90.01
2019-01-03T01:24:00.584Z,90.2
2019-01-03T01:24:59.331Z,89.53
2019-01-03T01:25:58.157Z,89.48
2019-01-03T01:26:56.711Z,89.2
2019-01-03T01:27:55.376Z,89.34
2019-01-03T01:28:54.022Z,89.25
2019-01-03T01:29:52.540Z,89.63
2019-01-03T01:30:51.109Z,89.53
2019-01-03T01:31:49.606Z,90.01
2019-01-03T01:32:48.221Z,90.01
2019-01-03T01:33:46.761Z,89.63
2019-01-03T01:34:45.599Z,89.91
2019-01-03T01:35:44.215Z,89.53
2019-01-03T01:36:42.733Z,89.44
2019-01-03T01:37:41.551Z,89.15
2019-01-03T01:38:40.217Z,89.15
2019-01-03T01:39:38.759Z,89.25
2019-01-03T01:40:37.271Z,89.82
2019-01-03T01:41:35.901Z,89.63
2019-01-03T01:42:34.446Z,89.82
2019-01-03T01:43:33.465Z,89.53
2019-01-03T01:44:32.072Z,89.91
2019-01-03T01:45:30.603Z,89.34
2019-01-03T01:46:29.280Z,90.1
2019-01-03T01:47:27.965Z,90.01
2019-01-03T01:48:26.556Z,90.29
2019-01-03T01:49:25.372Z,90.39
2019-01-03T01:50:24.178Z,90.29
2019-01-03T01:51:22.715Z,89.63
2019-01-03T01:52:21.367Z,89.91
2019-01-03T01:53:19.944Z,90.48
2019-01-03T01:54:18.481Z,90.01
2019-01-03T01:55:17.051Z,90.2
2019-01-03T01:56:15.619Z,90.01
2019-01-03T01:57:14.129Z,90.48
2019-01-03T01:58:12.660Z,89.72
2019-01-03T01:59:11.283Z,89.63
2019-01-03T02:00:09.911Z,89.53
2019-01-03T02:01:08.456Z,89.91
2019-01-03T02:02:07.132Z,89.91
2019-01-03T02:03:05.939Z,90.2
2019-01-03T02:04:04.593Z,90.29
2019-01-03T02:05:03.130Z,90.01
2019-01-03T02:06:01.726Z,89.91
2019-01-03T02:07:00.278Z,90.1
2019-01-03T02:07:58.916Z,90.01
2019-01-03T02:08:57.715Z,89.53
2019-01-03T02:09:56.282Z,89.44
2019-01-03T02:10:55.109Z,89.72
2019-01-03T02:11:53.754Z,89.44
2019-01-03T02:12:52.280Z,89.53
2019-01-03T02:13:50.857Z,89.34
2019-01-03T02:14:49.384Z,89.44
2019-01-03T02:15:47.927Z,88.78
2019-01-03T02:16:46.465Z,89.06
2019-01-03T02:17:45.354Z,89.25
2019-01-03T02:18:44.241Z,89.34
2019-01-03T02:19:42.797Z,89.53
2019-01-03T02:20:41.380Z,89.53
2019-01-03T02:21:39.958Z,89.34
2019-01-03T02:22:38.519Z,89.82
2019-01-03T02:23:37.426Z,89.63
2019-01-03T02:24:36.061Z,90.2
2019-01-03T02:25:34.603Z,90.1
2019-01-03T02:26:33.297Z,90.01
2019-01-03T02:27:33.058Z,90.29
2019-01-03T02:28:31.577Z,90.48
2019-01-03T02:29:30.098Z,90.1
2019-01-03T02:30:28.634Z,90.1
2019-01-03T02:31:27.492Z,90.58
2019-01-03T02:32:26.046Z,90.01
2019-01-03T02:33:24.704Z,90.1
2019-01-03T02:34:23.386Z,89.82
2019-01-03T02:35:22.078Z,89.06
2019-01-03T02:36:20.613Z,89.53
2019-01-03T02:37:19.138Z,89.53
2019-01-03T02:38:17.685Z,89.34
2019-01-03T02:39:16.297Z,88.96
2019-01-03T02:40:14.890Z,89.25
2019-01-03T02:41:13.706Z,89.34
2019-01-03T02:42:12.358Z,89.06
2019-01-03T02:43:11.011Z,89.63
2019-01-03T02:44:09.736Z,89.53
2019-01-03T02:45:08.275Z,88.96
2019-01-03T02:46:06.813Z,89.82
2019-01-03T02:47:05.353Z,90.29
2019-01-03T02:48:03.904Z,90.1
2019-01-03T02:49:02.463Z,90.2
2019-01-03T02:50:01.338Z,90.01
2019-01-03T02:51:00.080Z,89.82
2019-01-03T02:51:58.655Z,89.91
2019-01-03T02:52:57.353Z,89.34
2019-01-03T02:53:55.906Z,89.34
2019-01-03T02:54:54.453Z,89.34
2019-01-03T02:55:52.984Z,88.96
2019-01-03T02:56:51.519Z,89.15
2019-01-03T02:57:50.047Z,89.44
2019-01-03T02:58:48.606Z,89.25
2019-01-03T02:59:47.949Z,89.25
2019-01-03T03:00:46.533Z,89.44
2019-01-03T03:01:45.059Z,89.44
2019-01-03T03:02:43.610Z,89.25
2019-01-03T03:03:42.134Z,89.15
2019-01-03T03:04:40.674Z,89.25
2019-01-03T03:05:39.666Z,89.44
2019-01-03T03:06:38.227Z,89.06
2019-01-03T03:07:36.779Z,89.53
2019-01-03T03:08:35.589Z,89.44
2019-01-03T03:09:34.160Z,89.34
2019-01-03T03:10:32.731Z,89.15
2019-01-03T03:11:31.243Z,89.25
2019-01-03T03:12:29.795Z,89.44
2019-01-03T03:13:28.329Z,89.44
2019-01-03T03:14:26.919Z,89.06
2019-01-03T03:15:25.715Z,89.06
2019-01-03T03:16:24.250Z,89.15
2019-01-03T03:17:22.773Z,89.15
2019-01-03T03:18:21.672Z,88.78
2019-01-03T03:19:20.244Z,88.96
2019-01-03T03:20:18.795Z,89.06
2019-01-03T03:21:17.349Z,89.25
2019-01-03T03:22:16.223Z,88.59
2019-01-03T03:23:14.797Z,89.06
2019-01-03T03:24:13.659Z,89.15
2019-01-03T03:25:12.230Z,88.4
2019-01-03T03:26:10.746Z,88.49
2019-01-03T03:27:09.416Z,88.4
2019-01-03T03:28:07.981Z,88.78
2019-01-03T03:29:06.516Z,88.49
2019-01-03T03:30:05.060Z,89.15
2019-01-03T03:31:03.602Z,88.49
2019-01-03T03:32:02.120Z,88.68
2019-01-03T03:33:00.684Z,88.68
2019-01-03T03:33:59.536Z,88.02
2019-01-03T03:34:58.197Z,87.64
2019-01-03T03:35:56.732Z,87.92
2019-01-03T03:36:55.466Z,87.07
2019-01-03T03:37:54.068Z,87.64
2019-01-03T03:38:52.642Z,87.83
2019-01-03T03:39:51.203Z,88.11
2019-01-03T03:40:49.739Z,88.02
2019-01-03T03:41:48.273Z,88.11
2019-01-03T03:44:28.648Z,87.64
2019-01-03T03:45:27.380Z,87.54
2019-01-03T03:46:26.200Z,87.64
2019-01-03T03:47:24.757Z,87.45
2019-01-03T03:48:23.634Z,87.45
2019-01-03T03:49:22.163Z,87.92
2019-01-03T03:50:20.717Z,87.92
2019-01-03T03:51:19.573Z,87.83
2019-01-03T03:52:18.517Z,87.92
2019-01-03T03:53:17.267Z,87.07
2019-01-03T03:54:15.930Z,87.45
2019-01-03T03:55:14.471Z,86.88
2019-01-03T03:56:13.094Z,87.64
2019-01-03T03:57:11.845Z,87.73
2019-01-03T03:58:10.446Z,87.83
2019-01-03T03:59:09.300Z,86.69
2019-01-03T04:00:07.985Z,87.35
2019-01-03T04:01:06.546Z,87.54
2019-01-03T04:02:05.171Z,87.83
2019-01-03T04:03:03.874Z,87.64
2019-01-03T04:04:02.453Z,87.64
2019-01-03T04:05:01.055Z,87.45
2019-01-03T04:05:59.528Z,87.54
2019-01-03T04:06:58.087Z,87.83
2019-01-03T04:07:56.648Z,87.54
2019-01-03T04:08:55.515Z,87.5
2019-01-03T04:09:54.210Z,87.78
2019-01-03T04:13:15.765Z,88.21
2019-01-03T04:14:14.325Z,87.54
2019-01-03T04:15:12.874Z,86.98
2019-01-03T04:16:11.800Z,87.16
2019-01-03T04:17:10.351Z,86.6
2019-01-03T04:18:08.880Z,86.88
2019-01-03T04:19:07.447Z,87.73
2019-01-03T04:20:05.998Z,87.78
2019-01-03T04:21:04.587Z,87.59
2019-01-03T04:22:03.131Z,87.78
2019-01-03T04:23:01.696Z,87.78
2019-01-03T04:24:00.247Z,88.54
2019-01-03T04:24:58.834Z,88.26
2019-01-03T04:25:57.610Z,88.54
2019-01-03T04:26:56.187Z,87.5
2019-01-03T04:27:54.998Z,86.88
2019-01-03T04:28:53.641Z,87.07
2019-01-03T04:29:52.194Z,87.07
2019-01-03T04:30:50.789Z,87.26
2019-01-03T04:31:49.651Z,86.79
2019-01-03T04:32:48.227Z,86.93
2019-01-03T04:33:47.049Z,86.74
2019-01-03T04:34:45.726Z,86.83
2019-01-03T04:35:44.295Z,87.4
2019-01-03T04:36:42.848Z,87.31
2019-01-03T04:37:41.500Z,87.59
2019-01-03T04:38:40.029Z,87.5
2019-01-03T04:39:38.569Z,87.88
2019-01-03T04:40:37.436Z,87.21
2019-01-03T04:41:35.991Z,86.55
2019-01-03T04:42:34.578Z,87.31
2019-01-03T04:43:33.238Z,87.78
2019-01-03T04:44:31.932Z,86.93
2019-01-03T04:45:30.685Z,86.65
2019-01-03T04:46:29.384Z,86.74
2019-01-03T04:47:28.072Z,86.83
2019-01-03T04:48:26.611Z,86.55
2019-01-03T04:49:25.337Z,86.74
2019-01-03T04:50:23.949Z,86.93
2019-01-03T04:51:22.693Z,86.55
2019-01-03T04:52:21.476Z,86.55
2019-01-03T04:53:20.192Z,87.69
2019-01-03T04:54:18.738Z,87.5
2019-01-03T04:55:17.539Z,87.5
2019-01-03T04:56:16.083Z,87.88
2019-01-03T04:57:14.623Z,87.69
2019-01-03T04:58:13.156Z,87.78
2019-01-03T04:59:11.790Z,87.16
2019-01-03T05:00:10.279Z,86.74
2019-01-03T05:01:08.812Z,87.02
2019-01-03T05:02:07.599Z,87.59
2019-01-03T05:03:06.132Z,86.93
2019-01-03T05:04:04.677Z,87.78
2019-01-03T05:05:03.566Z,87.31
2019-01-03T05:06:02.176Z,87.5
2019-01-03T05:07:00.750Z,87.78
2019-01-03T05:07:59.752Z,87.78
2019-01-03T05:08:58.313Z,88.26
2019-01-03T05:09:56.933Z,87.98
2019-01-03T05:10:55.622Z,88.64
2019-01-03T05:11:54.273Z,88.54
2019-01-03T05:12:52.790Z,88.54
2019-01-03T05:13:51.349Z,87.69
2019-01-03T05:14:49.901Z,88.64
2019-01-03T05:15:48.447Z,88.54
2019-01-03T05:16:47.098Z,88.17
2019-01-03T05:17:45.816Z,88.26
2019-01-03T05:18:44.388Z,88.45
2019-01-03T05:19:42.909Z,88.54
2019-01-03T05:20:41.753Z,88.45
2019-01-03T05:21:40.270Z,87.98
2019-01-03T05:22:38.813Z,88.26
2019-01-03T05:23:37.435Z,88.17
2019-01-03T05:24:35.979Z,88.35
2019-01-03T05:25:34.533Z,88.17
2019-01-03T05:26:33.170Z,87.98
2019-01-03T05:27:31.910Z,88.17
2019-01-03T05:28:30.423Z,88.54
2019-01-03T05:29:29.045Z,87.98
2019-01-03T05:30:27.906Z,87.78
2019-01-03T05:31:26.460Z,88.45
2019-01-03T05:32:24.974Z,88.45
2019-01-03T05:33:23.632Z,88.26
2019-01-03T05:34:22.258Z,88.73
2019-01-03T05:35:22.347Z,88.45
2019-01-03T05:36:19.676Z,88.82
2019-01-03T05:37:18.343Z,88.64
2019-01-03T05:38:16.878Z,88.64
2019-01-03T05:39:15.555Z,89.3
2019-01-03T05:40:14.277Z,89.39
2019-01-03T05:41:12.829Z,89.3
2019-01-03T05:42:11.375Z,88.78
2019-01-03T05:43:09.961Z,89.35
2019-01-03T05:44:08.470Z,89.87
2019-01-03T05:45:07.291Z,88.97
2019-01-03T05:46:05.994Z,89.2
2019-01-03T05:47:04.577Z,89.11
2019-01-03T05:48:03.235Z,89.25
2019-01-03T05:49:01.847Z,89.44
2019-01-03T05:50:00.414Z,88.73
2019-01-03T05:50:58.954Z,88.82
2019-01-03T05:51:57.467Z,88.35
2019-01-03T05:52:55.997Z,88.35
2019-01-03T05:53:54.526Z,89.2
2019-01-03T05:54:53.063Z,89.25
2019-01-03T05:55:51.732Z,89.16
2019-01-03T05:56:50.289Z,89.25
2019-01-03T05:57:49.037Z,89.44
2019-01-03T05:58:47.842Z,90.11
2019-01-03T05:59:46.465Z,89.82
2019-01-03T06:00:44.945Z,89.44
2019-01-03T06:01:43.561Z,89.87
2019-01-03T06:02:42.105Z,89.96
2019-01-03T06:03:40.666Z,89.87
2019-01-03T06:04:39.203Z,89.96
2019-01-03T06:05:37.724Z,89.39
2019-01-03T06:06:36.278Z,89.11
2019-01-03T06:07:34.796Z,88.54
2019-01-03T06:08:33.335Z,88.45
2019-01-03T06:09:32.073Z,88.73
2019-01-03T06:10:30.637Z,88.73
2019-01-03T06:11:29.322Z,88.92
2019-01-03T06:12:27.936Z,88.17
2019-01-03T06:13:26.483Z,88.45
2019-01-03T06:14:25.148Z,88.64
2019-01-03T06:15:23.804Z,88.64
2019-01-03T06:16:22.332Z,88.35
2019-01-03T06:17:20.879Z,88.64
2019-01-03T06:18:19.412Z,88.64
2019-01-03T06:19:17.927Z,89.25
2019-01-03T06:20:16.461Z,89.16
2019-01-03T06:21:14.996Z,90.01
2019-01-03T06:22:13.568Z,89.49
2019-01-03T06:23:12.120Z,89.49
2019-01-03T06:24:10.658Z,88.73
2019-01-03T06:25:09.531Z,89.01
2019-01-03T06:26:08.188Z,89.68
2019-01-03T06:27:06.719Z,90.15
2019-01-03T06:28:05.368Z,90.15
2019-01-03T06:29:03.985Z,89.92
2019-01-03T06:30:02.516Z,90.06
2019-01-03T06:31:01.055Z,90.25
2019-01-03T06:31:59.649Z,89.77
2019-01-03T06:32:58.267Z,89.01
2019-01-03T06:33:57.079Z,88.92
2019-01-03T06:34:56.003Z,89.2
2019-01-03T06:35:54.563Z,90.25
2019-01-03T06:36:53.151Z,89.68
2019-01-03T06:37:51.744Z,89.77
2019-01-03T06:38:50.275Z,89.3
2019-01-03T06:39:48.809Z,89.96
2019-01-03T06:40:47.317Z,89.68
2019-01-03T06:41:45.859Z,88.92
2019-01-03T06:42:44.479Z,89.49
2019-01-03T06:43:43.026Z,88.92
2019-01-03T06:44:41.796Z,88.92
2019-01-03T06:45:40.439Z,89.77
2019-01-03T06:46:39.170Z,89.2
2019-01-03T06:47:37.922Z,88.82
2019-01-03T06:48:36.534Z,88.26
2019-01-03T06:49:35.486Z,88.26
2019-01-03T06:50:34.199Z,88.17
2019-01-03T06:51:32.903Z,88.07
2019-01-03T06:52:31.471Z,88.64
2019-01-03T06:53:30.066Z,89.11
2019-01-03T06:54:28.928Z,89.39
2019-01-03T06:55:27.805Z,89.68
2019-01-03T06:56:26.382Z,89.39
2019-01-03T06:57:24.911Z,89.96
2019-01-03T06:58:23.672Z,89.49
2019-01-03T06:59:22.223Z,89.96
2019-01-03T07:00:20.736Z,89.68
2019-01-03T07:01:19.556Z,89.49
2019-01-03T07:02:18.143Z,89.87
2019-01-03T07:03:16.715Z,89.87
2019-01-03T07:04:15.453Z,90.44
2019-01-03T07:05:14.279Z,90.53
2019-01-03T07:06:12.848Z,90.91
2019-01-03T07:07:11.715Z,90.44
2019-01-03T07:08:10.256Z,89.96
2019-01-03T07:09:08.861Z,89.68
2019-01-03T07:10:07.647Z,90.34
2019-01-03T07:11:06.409Z,90.06
2019-01-03T07:12:04.989Z,89.96
2019-01-03T07:13:03.708Z,90.06
2019-01-03T07:14:02.266Z,89.49
2019-01-03T07:15:00.796Z,89.39
2019-01-03T07:15:59.719Z,90.15
2019-01-03T07:16:58.406Z,90.25
2019-01-03T07:17:57.011Z,90.25
2019-01-03T07:18:55.775Z,90.25
2019-01-03T07:19:54.333Z,89.96
2019-01-03T07:20:52.890Z,89.77
2019-01-03T07:21:51.969Z,89.77
2019-01-03T07:22:50.547Z,90.25
2019-01-03T07:23:49.370Z,90.06
2019-01-03T07:24:48.119Z,89.96
2019-01-03T07:27:04.263Z,90.34
2019-01-03T07:28:02.574Z,89.77
2019-01-03T07:29:01.559Z,89.96
2019-01-03T07:30:00.259Z,90.15
2019-01-03T07:30:58.784Z,90.44
2019-01-03T07:31:57.461Z,90.34
2019-01-03T07:32:56.079Z,89.87
2019-01-03T07:33:54.631Z,89.49
2019-01-03T07:34:53.170Z,89.87
2019-01-03T07:35:51.823Z,89.2
2019-01-03T07:36:50.415Z,89.2
2019-01-03T07:37:49.092Z,89.2
2019-01-03T07:38:47.981Z,89.58
2019-01-03T07:39:46.608Z,90.25
2019-01-03T07:40:45.229Z,90.29
2019-01-03T07:41:43.781Z,90.15
2019-01-03T07:42:42.378Z,90.06
2019-01-03T07:43:40.941Z,90.25
2019-01-03T07:44:39.748Z,90.29
2019-01-03T07:45:38.265Z,90.39
2019-01-03T07:46:36.927Z,89.68
2019-01-03T07:47:35.602Z,90.25
2019-01-03T07:48:34.319Z,90.25
2019-01-03T07:49:33.032Z,90.25
2019-01-03T07:50:31.787Z,90.25
2019-01-03T07:51:30.362Z,91.05
2019-01-03T07:52:29.101Z,90.15
2019-01-03T07:53:27.895Z,91.14
2019-01-03T07:54:26.469Z,89.91
2019-01-03T07:55:25.356Z,89.87
2019-01-03T07:56:24.123Z,90.01
2019-01-03T07:57:22.698Z,90.34
2019-01-03T07:58:21.337Z,90.44
2019-01-03T07:59:20.041Z,90.67
2019-01-03T08:00:18.647Z,91.14
2019-01-03T08:01:17.447Z,90.2
2019-01-03T08:02:16.156Z,89.91
2019-01-03T08:03:14.707Z,90.2
2019-01-03T08:04:13.470Z,89.63
2019-01-03T08:05:12.098Z,89.91
2019-01-03T08:06:10.671Z,90.1
2019-01-03T08:07:09.663Z,90.48
2019-01-03T08:08:08.233Z,90.67
2019-01-03T08:09:06.831Z,90.1
2019-01-03T08:10:05.494Z,90.2
2019-01-03T08:11:04.247Z,90.2
2019-01-03T08:12:02.804Z,90.1
2019-01-03T08:13:01.643Z,90.48
2019-01-03T08:14:00.185Z,90.01
2019-01-03T08:14:58.694Z,90.29
2019-01-03T08:15:57.551Z,90.1
2019-01-03T08:16:56.214Z,90.29
2019-01-03T08:17:54.714Z,90.01
2019-01-03T08:18:53.279Z,90.58
2019-01-03T08:19:51.840Z,90.2
2019-01-03T08:20:50.372Z,90.1
2019-01-03T08:21:48.893Z,89.63
2019-01-03T08:22:47.816Z,89.63
2019-01-03T08:23:46.364Z,89.06
2019-01-03T08:24:44.997Z,89.82
2019-01-03T08:25:43.683Z,90.1
2019-01-03T08:26:42.358Z,89.25
2019-01-03T08:27:40.910Z,88.87
2019-01-03T08:28:39.424Z,89.34
2019-01-03T08:29:37.991Z,89.25
2019-01-03T08:30:36.535Z,88.96
2019-01-03T08:31:35.476Z,88.49
2019-01-03T08:32:34.145Z,88.78
2019-01-03T08:33:32.956Z,88.63
2019-01-03T08:34:31.638Z,88.54
2019-01-03T08:35:30.185Z,88.4
2019-01-03T08:36:28.726Z,88.73
2019-01-03T08:37:27.519Z,88.73
2019-01-03T08:38:26.224Z,88.73
2019-01-03T08:39:24.768Z,88.63
2019-01-03T08:40:23.548Z,88.25
2019-01-03T08:41:22.218Z,88.06
2019-01-03T08:42:20.739Z,87.68
2019-01-03T08:43:19.590Z,88.25
2019-01-03T08:44:18.120Z,88.06
2019-01-03T08:45:16.668Z,87.59
2019-01-03T08:46:15.399Z,87.68
2019-01-03T08:47:14.105Z,87.49
2019-01-03T08:48:12.655Z,87.68
2019-01-03T08:49:11.184Z,87.68
2019-01-03T08:50:09.799Z,87.68
2019-01-03T08:51:08.317Z,87.49
2019-01-03T08:52:06.843Z,86.74
2019-01-03T08:53:05.558Z,87.12
2019-01-03T08:54:04.230Z,86.83
2019-01-03T08:55:02.822Z,86.83
2019-01-03T08:56:01.648Z,87.12
2019-01-03T08:57:00.331Z,86.83
2019-01-03T08:57:58.908Z,86.64
2019-01-03T08:58:57.459Z,86.64
2019-01-03T08:59:55.973Z,86.16
2019-01-03T09:00:54.493Z,86.45
2019-01-03T09:01:53.085Z,87.02
2019-01-03T09:02:51.940Z,86.83
2019-01-03T09:03:50.459Z,87.12
2019-01-03T09:04:49.250Z,86.74
2019-01-03T09:05:47.957Z,86.74
2019-01-03T09:06:46.555Z,87.02
2019-01-03T09:07:45.455Z,86.74
2019-01-03T09:08:44.237Z,86.93
2019-01-03T09:09:42.947Z,87.02
2019-01-03T09:10:41.493Z,86.74
2019-01-03T09:11:40.072Z,86.45
2019-01-03T09:12:38.658Z,87.3
2019-01-03T09:13:37.233Z,86.83
2019-01-03T09:14:35.971Z,86.55
2019-01-03T09:15:34.617Z,87.49
2019-01-03T09:16:33.178Z,87.49
2019-01-03T09:17:31.978Z,86.93
2019-01-03T09:18:30.622Z,86.83
2019-01-03T09:19:29.189Z,86.64
2019-01-03T09:20:27.722Z,87.68
2019-01-03T09:21:26.265Z,86.64
2019-01-03T09:22:24.873Z,86.64
2019-01-03T09:23:23.734Z,87.12
2019-01-03T09:24:22.278Z,87.12
2019-01-03T09:25:20.828Z,87.02
2019-01-03T09:26:19.605Z,87.12
2019-01-03T09:27:18.440Z,87.02
2019-01-03T09:28:17.029Z,87.02
2019-01-03T09:29:15.841Z,86.35
2019-01-03T09:30:15.017Z,86.26
2019-01-03T09:31:13.805Z,86.45
2019-01-03T09:32:12.341Z,86.93
2019-01-03T09:33:10.855Z,87.02
2019-01-03T09:34:09.678Z,86.07
2019-01-03T09:35:08.371Z,86.93
2019-01-03T09:36:06.998Z,87.12
2019-01-03T09:37:05.747Z,86.93
2019-01-03T09:38:04.278Z,86.93
2019-01-03T09:39:02.823Z,86.35
2019-01-03T09:40:01.444Z,86.07
2019-01-03T09:41:00.224Z,86.45
2019-01-03T09:41:58.743Z,86.45
2019-01-03T09:42:57.544Z,85.97
2019-01-03T09:43:56.109Z,86.16
2019-01-03T09:44:54.642Z,86.83
2019-01-03T09:45:54.882Z,86.16
2019-01-03T09:46:52.290Z,86.16
2019-01-03T09:47:50.826Z,86.35
2019-01-03T09:48:49.557Z,86.35
2019-01-03T09:49:48.162Z,85.88
2019-01-03T09:50:46.783Z,86.35
2019-01-03T09:51:45.624Z,86.45
2019-01-03T09:52:44.184Z,85.97
2019-01-03T09:53:42.849Z,86.07
2019-01-03T09:54:41.521Z,86.26
2019-01-03T09:55:40.221Z,86.26
2019-01-03T09:56:38.769Z,85.97
2019-01-03T09:57:37.337Z,85.88
2019-01-03T09:58:35.910Z,85.88
2019-01-03T09:59:34.472Z,85.69
2019-01-03T10:00:33.012Z,85.64
2019-01-03T10:01:31.749Z,85.55
2019-01-03T10:02:30.369Z,84.88
2019-01-03T10:03:29.030Z,85.45
2019-01-03T10:04:27.764Z,84.98
2019-01-03T10:05:26.399Z,85.93
2019-01-03T10:06:24.970Z,85.17
2019-01-03T10:07:23.556Z,85.64
2019-01-03T10:08:22.118Z,85.83
2019-01-03T10:09:20.888Z,85.97
2019-01-03T10:10:19.736Z,85.78
2019-01-03T10:11:18.302Z,86.02
2019-01-03T10:12:16.863Z,85.74
2019-01-03T10:13:15.493Z,84.88
2019-01-03T10:14:14.042Z,85.22
2019-01-03T10:15:12.590Z,84.94
2019-01-03T10:16:11.187Z,84.94
2019-01-03T10:17:09.985Z,85.41
2019-01-03T10:18:08.574Z,85.78
2019-01-03T10:19:07.577Z,84.94
2019-01-03T10:20:06.077Z,85.13
2019-01-03T10:21:04.698Z,85.5
2019-01-03T10:22:03.521Z,85.97
2019-01-03T10:23:02.142Z,86.35
2019-01-03T10:24:00.701Z,86.07
2019-01-03T10:24:59.481Z,85.88
2019-01-03T10:25:58.196Z,87.02
2019-01-03T10:26:56.822Z,86.64
2019-01-03T10:27:55.618Z,86.93
2019-01-03T10:28:54.241Z,87.87
2019-01-03T10:29:52.769Z,86.83
2019-01-03T10:30:51.520Z,87.12
2019-01-03T10:31:50.386Z,87.77
2019-01-03T10:32:48.993Z,87.77
2019-01-03T10:33:47.907Z,87.87
2019-01-03T10:34:46.483Z,88.35
2019-01-03T10:35:45.007Z,88.35
2019-01-03T10:36:43.757Z,88.63
2019-01-03T10:37:42.352Z,88.35
2019-01-03T10:38:40.914Z,88.16
2019-01-03T10:39:39.451Z,87.73
2019-01-03T10:40:38.155Z,87.92
2019-01-03T10:41:36.663Z,87.63
2019-01-03T10:42:35.407Z,87.45
2019-01-03T10:43:34.106Z,87.73
2019-01-03T10:44:32.677Z,87.54
2019-01-03T10:45:31.258Z,87.54
2019-01-03T10:46:30.030Z,87.35
2019-01-03T10:47:28.582Z,87.06
2019-01-03T10:48:27.552Z,87.63
2019-01-03T10:49:26.203Z,86.87
2019-01-03T10:50:24.745Z,86.78
2019-01-03T10:51:23.493Z,87.63
2019-01-03T10:52:22.096Z,86.87
2019-01-03T10:55:02.158Z,86.78
2019-01-03T10:56:00.711Z,87.73
2019-01-03T10:56:59.564Z,87.25
2019-01-03T10:57:58.222Z,86.3
2019-01-03T10:58:56.764Z,87.73
2019-01-03T10:59:55.436Z,87.54
2019-01-03T11:00:54.043Z,87.82
2019-01-03T11:01:52.556Z,87.63
2019-01-03T11:02:51.491Z,87.63
2019-01-03T11:03:50.233Z,87.54
2019-01-03T11:04:48.809Z,88.2
2019-01-03T11:05:47.782Z,87.73
2019-01-03T11:06:46.169Z,88.29
2019-01-03T11:07:44.730Z,87.92
2019-01-03T11:08:43.254Z,87.63
2019-01-03T11:09:41.816Z,87.92
2019-01-03T11:10:40.345Z,88.39
2019-01-03T11:11:38.906Z,88.1
2019-01-03T11:23:12.993Z,89.06
2019-01-03T11:24:11.699Z,88.96
2019-01-03T11:25:10.344Z,89.34
2019-01-03T11:26:08.916Z,89.06
2019-01-03T11:27:07.721Z,89.15
2019-01-03T11:28:06.289Z,90.19
2019-01-03T11:29:04.825Z,90.1
2019-01-03T11:30:03.880Z,90
2019-01-03T11:31:02.452Z,90
2019-01-03T11:32:00.991Z,89.91
2019-01-03T11:32:59.834Z,89.91
2019-01-03T11:35:44.114Z,89.25
2019-01-03T11:36:42.694Z,88.77
2019-01-03T11:37:41.323Z,88.87
2019-01-03T11:38:40.203Z,88.29
2019-01-03T11:39:38.776Z,88.77
2019-01-03T11:40:37.682Z,88.2
2019-01-03T11:41:36.272Z,88.48
2019-01-03T11:42:34.829Z,88.77
2019-01-03T11:43:33.342Z,88.01
2019-01-03T11:44:31.873Z,87.82
2019-01-03T11:45:30.382Z,87.63
2019-01-03T11:46:29.047Z,87.45
2019-01-03T11:47:27.846Z,87.45
2019-01-03T11:48:26.413Z,87.45
2019-01-03T11:49:25.096Z,87.35
2019-01-03T11:50:23.735Z,87.73
2019-01-03T11:51:22.405Z,88.1
2019-01-03T11:52:20.978Z,87.45
2019-01-03T11:53:19.539Z,88.2
2019-01-03T11:54:18.063Z,88.1
2019-01-03T11:55:16.727Z,87.54
2019-01-03T11:56:15.517Z,87.54
2019-01-03T11:57:14.136Z,87.87
2019-01-03T11:58:12.709Z,87.49
2019-01-03T11:59:11.390Z,86.54
2019-01-03T12:00:10.078Z,86.72
2019-01-03T12:01:08.766Z,85.97
2019-01-03T12:02:07.559Z,86.54
2019-01-03T12:03:06.370Z,86.91
2019-01-03T12:04:05.064Z,86.68
2019-01-03T12:05:03.628Z,87.68
2019-01-03T12:06:02.222Z,87.58
2019-01-03T12:07:00.752Z,87.45
2019-01-03T12:07:59.684Z,87.49
2019-01-03T12:08:58.239Z,87.63
2019-01-03T12:09:56.818Z,88.29
2019-01-03T12:10:55.515Z,88.87
2019-01-03T12:11:54.258Z,88.96
2019-01-03T12:12:52.836Z,89.34
2019-01-03T12:13:51.625Z,89.15
2019-01-03T12:14:50.224Z,89.25
2019-01-03T12:15:48.804Z,89.81
2019-01-03T12:16:47.608Z,89.62
2019-01-03T12:17:46.339Z,90
2019-01-03T12:18:44.888Z,90
2019-01-03T12:19:43.430Z,90.38
2019-01-03T12:20:41.961Z,90.38
2019-01-03T12:21:40.494Z,89.81
2019-01-03T12:22:39.405Z,90
2019-01-03T12:23:38.176Z,90.19
2019-01-03T12:24:36.738Z,90.19
2019-01-03T12:27:17.083Z,90.1
2019-01-03T12:28:15.939Z,90.19
2019-01-03T12:29:14.477Z,89.76
2019-01-03T12:30:13.048Z,89.81
2019-01-03T12:31:11.729Z,90
2019-01-03T12:32:12.336Z,90
2019-01-03T12:33:10.914Z,90.48
2019-01-03T12:34:09.575Z,90.29
2019-01-03T12:35:08.168Z,90
2019-01-03T12:36:06.916Z,90.19
2019-01-03T12:37:05.785Z,90.19
2019-01-03T12:38:04.330Z,90.19
2019-01-03T12:39:03.062Z,90.48
2019-01-03T12:40:01.649Z,90.29
2019-01-03T12:41:00.196Z,90.1
2019-01-03T12:41:58.780Z,90.86
2019-01-03T12:42:57.605Z,89.91
2019-01-03T12:43:56.278Z,90.19
2019-01-03T12:56:37.851Z,89.62
2019-01-03T12:57:36.474Z,89.72
2019-01-03T12:58:35.061Z,89.91
2019-01-03T12:59:33.890Z,90.19
2019-01-03T13:00:32.425Z,90.48
2019-01-03T13:01:30.987Z,90.19
2019-01-03T13:02:29.925Z,90.76
2019-01-03T13:03:28.485Z,90.62
2019-01-03T13:04:27.135Z,90.19
2019-01-03T13:05:25.897Z,90
2019-01-03T13:06:24.450Z,90.19
2019-01-03T13:07:23.093Z,90.43
2019-01-03T13:08:22.024Z,90.19
2019-01-03T13:09:24.503Z,90.29
2019-01-03T13:10:23.107Z,90.48
2019-01-03T13:11:21.836Z,90.48
2019-01-03T13:12:20.556Z,90.38
2019-01-03T13:13:19.485Z,90.19
2019-01-03T13:14:18.174Z,89.81
2019-01-03T13:15:16.915Z,90.19
2019-01-03T13:16:15.531Z,90.29
2019-01-03T13:17:14.133Z,90.19
2019-01-03T13:18:12.653Z,90.67
2019-01-03T13:19:11.573Z,91.14
2019-01-03T13:20:10.223Z,91.42
2019-01-03T13:21:08.764Z,90.95
2019-01-03T13:22:08.263Z,90.95
2019-01-03T13:23:06.860Z,89.95
2019-01-03T13:24:05.592Z,90.24
2019-01-03T13:25:04.183Z,90.19
2019-01-03T13:26:02.723Z,90.52
2019-01-03T13:27:01.632Z,90.38
2019-01-03T13:28:00.270Z,90.86
2019-01-03T13:28:58.836Z,90.76
2019-01-03T13:29:57.500Z,91.33
2019-01-03T13:30:56.320Z,91.33
2019-01-03T13:31:54.908Z,91.71
2019-01-03T13:32:53.665Z,91.71